sensor_id;sensor_type;location;lat;lon;timestamp;P1;durP1;ratioP1;P2;durP2;ratioP2
66946;SDS011;53853;51.982;5.928;2024-03-22T00:02:03;29.55;;;23.80;;
66946;SDS011;53853;51.982;5.928;2024-03-22T00:04:32;23.08;;;19.83;;
66946;SDS011;53853;51.982;5.928;2024-03-22T00:07:00;28.85;;;24.23;;
66946;SDS011;53853;51.982;5.928;2024-03-22T00:09:27;26.60;;;22.27;;
66946;SDS011;53853;51.982;5.928;2024-03-22T00:11:54;27.98;;;21.63;;
66946;SDS011;53853;51.982;5.928;2024-03-22T00:14:21;26.50;;;21.17;;
66946;SDS011;53853;51.982;5.928;2024-03-22T00:16:49;25.85;;;20.58;;
66946;SDS011;53853;51.982;5.928;2024-03-22T00:19:16;40.75;;;30.98;;
66946;SDS011;53853;51.982;5.928;2024-03-22T00:21:46;36.28;;;27.38;;
66946;SDS011;53853;51.982;5.928;2024-03-22T00:24:13;34.53;;;25.75;;
66946;SDS011;53853;51.982;5.928;2024-03-22T00:26:40;33.13;;;26.80;;
66946;SDS011;53853;51.982;5.928;2024-03-22T00:29:15;34.58;;;26.70;;
66946;SDS011;53853;51.982;5.928;2024-03-22T00:31:42;37.97;;;26.83;;
66946;SDS011;53853;51.982;5.928;2024-03-22T00:34:10;39.92;;;30.60;;
66946;SDS011;53853;51.982;5.928;2024-03-22T00:36:37;36.70;;;28.80;;
66946;SDS011;53853;51.982;5.928;2024-03-22T00:39:07;35.95;;;26.30;;
66946;SDS011;53853;51.982;5.928;2024-03-22T00:41:34;38.30;;;28.80;;
66946;SDS011;53853;51.982;5.928;2024-03-22T00:44:01;35.72;;;26.98;;
66946;SDS011;53853;51.982;5.928;2024-03-22T00:46:29;37.83;;;30.10;;
66946;SDS011;53853;51.982;5.928;2024-03-22T00:48:56;33.45;;;24.48;;
66946;SDS011;53853;51.982;5.928;2024-03-22T00:51:24;33.33;;;25.80;;
66946;SDS011;53853;51.982;5.928;2024-03-22T00:53:52;28.10;;;22.95;;
66946;SDS011;53853;51.982;5.928;2024-03-22T00:56:22;31.25;;;23.88;;
66946;SDS011;53853;51.982;5.928;2024-03-22T00:58:49;28.90;;;22.92;;
66946;SDS011;53853;51.982;5.928;2024-03-22T01:01:17;32.22;;;21.95;;
66946;SDS011;53853;51.982;5.928;2024-03-22T01:03:44;25.92;;;20.55;;
66946;SDS011;53853;51.982;5.928;2024-03-22T01:06:11;31.58;;;24.75;;
66946;SDS011;53853;51.982;5.928;2024-03-22T01:08:38;27.70;;;21.67;;
66946;SDS011;53853;51.982;5.928;2024-03-22T01:11:05;28.13;;;20.80;;
66946;SDS011;53853;51.982;5.928;2024-03-22T01:13:35;43.78;;;29.27;;
66946;SDS011;53853;51.982;5.928;2024-03-22T01:16:03;34.63;;;26.17;;
66946;SDS011;53853;51.982;5.928;2024-03-22T01:18:31;38.33;;;28.13;;
66946;SDS011;53853;51.982;5.928;2024-03-22T01:20:58;45.55;;;32.25;;
66946;SDS011;53853;51.982;5.928;2024-03-22T01:23:25;34.67;;;27.00;;
66946;SDS011;53853;51.982;5.928;2024-03-22T01:25:52;30.23;;;23.88;;
66946;SDS011;53853;51.982;5.928;2024-03-22T01:28:19;36.47;;;25.63;;
66946;SDS011;53853;51.982;5.928;2024-03-22T01:30:49;30.88;;;23.75;;
66946;SDS011;53853;51.982;5.928;2024-03-22T01:33:16;32.05;;;25.90;;
66946;SDS011;53853;51.982;5.928;2024-03-22T01:35:44;30.85;;;24.40;;
66946;SDS011;53853;51.982;5.928;2024-03-22T01:38:11;34.17;;;26.58;;
66946;SDS011;53853;51.982;5.928;2024-03-22T01:40:38;35.72;;;24.67;;
66946;SDS011;53853;51.982;5.928;2024-03-22T01:43:05;39.92;;;28.63;;
66946;SDS011;53853;51.982;5.928;2024-03-22T01:45:32;34.05;;;24.95;;
66946;SDS011;53853;51.982;5.928;2024-03-22T01:48:05;35.75;;;25.73;;
66946;SDS011;53853;51.982;5.928;2024-03-22T01:50:34;32.65;;;25.35;;
66946;SDS011;53853;51.982;5.928;2024-03-22T01:53:01;31.17;;;23.63;;
66946;SDS011;53853;51.982;5.928;2024-03-22T01:55:29;29.63;;;22.70;;
66946;SDS011;53853;51.982;5.928;2024-03-22T01:57:57;36.10;;;25.75;;
66946;SDS011;53853;51.982;5.928;2024-03-22T02:00:24;38.13;;;28.90;;
66946;SDS011;53853;51.982;5.928;2024-03-22T02:02:51;36.00;;;26.92;;
66946;SDS011;53853;51.982;5.928;2024-03-22T02:05:21;26.73;;;22.08;;
66946;SDS011;53853;51.982;5.928;2024-03-22T02:07:48;46.03;;;32.60;;
66946;SDS011;53853;51.982;5.928;2024-03-22T02:10:16;35.75;;;28.88;;
66946;SDS011;53853;51.982;5.928;2024-03-22T02:12:44;43.45;;;31.20;;
66946;SDS011;53853;51.982;5.928;2024-03-22T02:15:11;39.30;;;29.67;;
66946;SDS011;53853;51.982;5.928;2024-03-22T02:17:38;32.25;;;25.38;;
66946;SDS011;53853;51.982;5.928;2024-03-22T02:20:06;39.03;;;30.83;;
66946;SDS011;53853;51.982;5.928;2024-03-22T02:22:36;36.22;;;29.02;;
66946;SDS011;53853;51.982;5.928;2024-03-22T02:25:07;39.40;;;28.30;;
66946;SDS011;53853;51.982;5.928;2024-03-22T02:27:34;33.17;;;25.88;;
66946;SDS011;53853;51.982;5.928;2024-03-22T02:30:01;29.63;;;23.08;;
66946;SDS011;53853;51.982;5.928;2024-03-22T02:32:29;36.00;;;26.33;;
66946;SDS011;53853;51.982;5.928;2024-03-22T02:34:56;42.47;;;30.10;;
66946;SDS011;53853;51.982;5.928;2024-03-22T02:37:23;48.40;;;34.65;;
66946;SDS011;53853;51.982;5.928;2024-03-22T02:39:50;44.35;;;32.65;;
66946;SDS011;53853;51.982;5.928;2024-03-22T02:42:20;39.00;;;28.73;;
66946;SDS011;53853;51.982;5.928;2024-03-22T02:44:47;38.63;;;29.48;;
66946;SDS011;53853;51.982;5.928;2024-03-22T02:47:14;33.15;;;26.30;;
66946;SDS011;53853;51.982;5.928;2024-03-22T02:49:41;44.72;;;32.42;;
66946;SDS011;53853;51.982;5.928;2024-03-22T02:52:09;37.92;;;30.30;;
66946;SDS011;53853;51.982;5.928;2024-03-22T02:54:36;43.25;;;32.13;;
66946;SDS011;53853;51.982;5.928;2024-03-22T02:57:03;40.03;;;31.13;;
66946;SDS011;53853;51.982;5.928;2024-03-22T02:59:33;45.42;;;34.17;;
66946;SDS011;53853;51.982;5.928;2024-03-22T03:02:00;36.50;;;28.10;;
66946;SDS011;53853;51.982;5.928;2024-03-22T03:04:28;41.30;;;32.85;;
66946;SDS011;53853;51.982;5.928;2024-03-22T03:06:55;37.47;;;29.15;;
66946;SDS011;53853;51.982;5.928;2024-03-22T03:09:22;39.47;;;28.52;;
66946;SDS011;53853;51.982;5.928;2024-03-22T03:11:49;35.38;;;26.25;;
66946;SDS011;53853;51.982;5.928;2024-03-22T03:14:16;44.88;;;32.63;;
66946;SDS011;53853;51.982;5.928;2024-03-22T03:16:46;43.38;;;33.03;;
66946;SDS011;53853;51.982;5.928;2024-03-22T03:19:13;37.50;;;29.02;;
66946;SDS011;53853;51.982;5.928;2024-03-22T03:21:40;29.02;;;23.27;;
66946;SDS011;53853;51.982;5.928;2024-03-22T03:24:08;38.13;;;28.73;;
66946;SDS011;53853;51.982;5.928;2024-03-22T03:26:35;34.95;;;25.35;;
66946;SDS011;53853;51.982;5.928;2024-03-22T03:29:02;42.75;;;31.77;;
66946;SDS011;53853;51.982;5.928;2024-03-22T03:31:29;40.95;;;30.40;;
66946;SDS011;53853;51.982;5.928;2024-03-22T03:33:59;36.67;;;26.73;;
66946;SDS011;53853;51.982;5.928;2024-03-22T03:36:26;39.20;;;30.75;;
66946;SDS011;53853;51.982;5.928;2024-03-22T03:38:53;40.97;;;30.90;;
66946;SDS011;53853;51.982;5.928;2024-03-22T03:41:21;38.38;;;31.63;;
66946;SDS011;53853;51.982;5.928;2024-03-22T03:43:48;35.28;;;28.73;;
66946;SDS011;53853;51.982;5.928;2024-03-22T03:46:15;36.47;;;28.63;;
66946;SDS011;53853;51.982;5.928;2024-03-22T03:48:42;42.03;;;32.60;;
66946;SDS011;53853;51.982;5.928;2024-03-22T03:51:12;34.08;;;28.08;;
66946;SDS011;53853;51.982;5.928;2024-03-22T03:53:39;44.90;;;33.85;;
66946;SDS011;53853;51.982;5.928;2024-03-22T03:56:06;39.75;;;30.80;;
66946;SDS011;53853;51.982;5.928;2024-03-22T03:58:34;38.70;;;28.38;;
66946;SDS011;53853;51.982;5.928;2024-03-22T04:01:04;37.47;;;29.73;;
66946;SDS011;53853;51.982;5.928;2024-03-22T04:03:31;37.40;;;29.65;;
66946;SDS011;53853;51.982;5.928;2024-03-22T04:05:59;39.05;;;30.38;;
66946;SDS011;53853;51.982;5.928;2024-03-22T04:08:29;40.22;;;30.60;;
66946;SDS011;53853;51.982;5.928;2024-03-22T04:10:57;42.75;;;31.80;;
66946;SDS011;53853;51.982;5.928;2024-03-22T04:13:25;35.40;;;29.17;;
66946;SDS011;53853;51.982;5.928;2024-03-22T04:15:53;41.33;;;31.35;;
66946;SDS011;53853;51.982;5.928;2024-03-22T04:18:24;37.92;;;30.75;;
66946;SDS011;53853;51.982;5.928;2024-03-22T04:20:54;37.75;;;27.67;;
66946;SDS011;53853;51.982;5.928;2024-03-22T04:23:22;39.15;;;31.02;;
66946;SDS011;53853;51.982;5.928;2024-03-22T04:25:57;38.58;;;29.90;;
66946;SDS011;53853;51.982;5.928;2024-03-22T04:28:24;41.30;;;31.08;;
66946;SDS011;53853;51.982;5.928;2024-03-22T04:30:59;35.40;;;27.02;;
66946;SDS011;53853;51.982;5.928;2024-03-22T04:33:27;39.05;;;30.17;;
66946;SDS011;53853;51.982;5.928;2024-03-22T04:35:55;38.33;;;29.92;;
66946;SDS011;53853;51.982;5.928;2024-03-22T04:38:23;41.30;;;32.55;;
66946;SDS011;53853;51.982;5.928;2024-03-22T04:40:51;41.58;;;31.83;;
66946;SDS011;53853;51.982;5.928;2024-03-22T04:43:22;43.40;;;32.75;;
66946;SDS011;53853;51.982;5.928;2024-03-22T04:45:50;35.80;;;28.50;;
66946;SDS011;53853;51.982;5.928;2024-03-22T04:48:18;39.53;;;29.63;;
66946;SDS011;53853;51.982;5.928;2024-03-22T04:50:46;42.92;;;29.15;;
66946;SDS011;53853;51.982;5.928;2024-03-22T04:53:14;36.35;;;29.30;;
66946;SDS011;53853;51.982;5.928;2024-03-22T04:55:42;42.38;;;31.45;;
66946;SDS011;53853;51.982;5.928;2024-03-22T04:58:11;37.60;;;28.48;;
66946;SDS011;53853;51.982;5.928;2024-03-22T05:00:42;33.33;;;26.42;;
66946;SDS011;53853;51.982;5.928;2024-03-22T05:03:09;36.05;;;29.17;;
66946;SDS011;53853;51.982;5.928;2024-03-22T05:05:37;38.40;;;29.80;;
66946;SDS011;53853;51.982;5.928;2024-03-22T05:08:05;39.97;;;30.70;;
66946;SDS011;53853;51.982;5.928;2024-03-22T05:10:33;35.28;;;27.23;;
66946;SDS011;53853;51.982;5.928;2024-03-22T05:13:00;35.60;;;27.85;;
66946;SDS011;53853;51.982;5.928;2024-03-22T05:15:27;37.25;;;28.33;;
66946;SDS011;53853;51.982;5.928;2024-03-22T05:17:57;34.95;;;27.95;;
66946;SDS011;53853;51.982;5.928;2024-03-22T05:20:25;31.38;;;25.48;;
66946;SDS011;53853;51.982;5.928;2024-03-22T05:22:52;37.15;;;27.75;;
66946;SDS011;53853;51.982;5.928;2024-03-22T05:25:20;34.00;;;26.15;;
66946;SDS011;53853;51.982;5.928;2024-03-22T05:27:47;35.08;;;25.92;;
66946;SDS011;53853;51.982;5.928;2024-03-22T05:30:15;33.70;;;27.23;;
66946;SDS011;53853;51.982;5.928;2024-03-22T05:32:42;35.63;;;27.10;;
66946;SDS011;53853;51.982;5.928;2024-03-22T05:35:11;38.60;;;28.98;;
66946;SDS011;53853;51.982;5.928;2024-03-22T05:37:39;33.75;;;25.27;;
66946;SDS011;53853;51.982;5.928;2024-03-22T05:40:06;35.70;;;27.98;;
66946;SDS011;53853;51.982;5.928;2024-03-22T05:42:34;36.85;;;27.77;;
66946;SDS011;53853;51.982;5.928;2024-03-22T05:45:02;35.30;;;26.38;;
66946;SDS011;53853;51.982;5.928;2024-03-22T05:47:30;33.28;;;26.80;;
66946;SDS011;53853;51.982;5.928;2024-03-22T05:49:57;33.88;;;26.02;;
66946;SDS011;53853;51.982;5.928;2024-03-22T05:52:27;36.40;;;25.85;;
66946;SDS011;53853;51.982;5.928;2024-03-22T05:54:54;32.40;;;25.10;;
66946;SDS011;53853;51.982;5.928;2024-03-22T05:57:21;31.30;;;24.85;;
66946;SDS011;53853;51.982;5.928;2024-03-22T05:59:48;35.40;;;26.17;;
66946;SDS011;53853;51.982;5.928;2024-03-22T06:02:16;31.38;;;24.65;;
66946;SDS011;53853;51.982;5.928;2024-03-22T06:04:43;33.10;;;24.60;;
66946;SDS011;53853;51.982;5.928;2024-03-22T06:07:10;31.13;;;23.77;;
66946;SDS011;53853;51.982;5.928;2024-03-22T06:09:40;29.23;;;23.30;;
66946;SDS011;53853;51.982;5.928;2024-03-22T06:12:11;29.05;;;23.20;;
66946;SDS011;53853;51.982;5.928;2024-03-22T06:14:39;32.65;;;24.08;;
66946;SDS011;53853;51.982;5.928;2024-03-22T06:17:06;32.60;;;24.35;;
66946;SDS011;53853;51.982;5.928;2024-03-22T06:19:34;34.47;;;25.20;;
66946;SDS011;53853;51.982;5.928;2024-03-22T06:22:01;32.05;;;24.08;;
66946;SDS011;53853;51.982;5.928;2024-03-22T06:24:28;29.95;;;24.23;;
66946;SDS011;53853;51.982;5.928;2024-03-22T06:26:58;29.63;;;23.90;;
66946;SDS011;53853;51.982;5.928;2024-03-22T06:29:26;28.77;;;23.30;;
66946;SDS011;53853;51.982;5.928;2024-03-22T06:31:53;34.15;;;25.55;;
66946;SDS011;53853;51.982;5.928;2024-03-22T06:34:20;27.13;;;22.30;;
66946;SDS011;53853;51.982;5.928;2024-03-22T06:36:48;29.98;;;22.30;;
66946;SDS011;53853;51.982;5.928;2024-03-22T06:39:15;26.77;;;22.65;;
66946;SDS011;53853;51.982;5.928;2024-03-22T06:41:42;32.08;;;22.83;;
66946;SDS011;53853;51.982;5.928;2024-03-22T06:44:13;31.20;;;23.83;;
66946;SDS011;53853;51.982;5.928;2024-03-22T06:46:40;31.58;;;23.45;;
66946;SDS011;53853;51.982;5.928;2024-03-22T06:49:07;27.67;;;21.83;;
66946;SDS011;53853;51.982;5.928;2024-03-22T06:51:34;28.48;;;21.70;;
66946;SDS011;53853;51.982;5.928;2024-03-22T06:54:02;31.20;;;23.90;;
66946;SDS011;53853;51.982;5.928;2024-03-22T06:56:29;25.15;;;19.15;;
66946;SDS011;53853;51.982;5.928;2024-03-22T06:58:56;27.83;;;21.55;;
66946;SDS011;53853;51.982;5.928;2024-03-22T07:01:27;30.30;;;22.48;;
66946;SDS011;53853;51.982;5.928;2024-03-22T07:03:54;33.58;;;23.80;;
66946;SDS011;53853;51.982;5.928;2024-03-22T07:06:21;25.75;;;19.27;;
66946;SDS011;53853;51.982;5.928;2024-03-22T07:08:48;25.13;;;19.92;;
66946;SDS011;53853;51.982;5.928;2024-03-22T07:11:15;27.70;;;20.85;;
66946;SDS011;53853;51.982;5.928;2024-03-22T07:13:42;26.80;;;20.25;;
66946;SDS011;53853;51.982;5.928;2024-03-22T07:16:10;27.25;;;21.90;;
66946;SDS011;53853;51.982;5.928;2024-03-22T07:18:39;25.77;;;21.70;;
66946;SDS011;53853;51.982;5.928;2024-03-22T07:21:07;21.27;;;17.80;;
66946;SDS011;53853;51.982;5.928;2024-03-22T07:23:34;25.65;;;18.95;;
66946;SDS011;53853;51.982;5.928;2024-03-22T07:26:01;25.15;;;20.95;;
66946;SDS011;53853;51.982;5.928;2024-03-22T07:28:28;22.40;;;19.38;;
66946;SDS011;53853;51.982;5.928;2024-03-22T07:30:55;20.50;;;17.10;;
66946;SDS011;53853;51.982;5.928;2024-03-22T07:33:22;22.17;;;16.77;;
66946;SDS011;53853;51.982;5.928;2024-03-22T07:35:52;18.10;;;15.45;;
66946;SDS011;53853;51.982;5.928;2024-03-22T07:38:19;25.95;;;21.25;;
66946;SDS011;53853;51.982;5.928;2024-03-22T07:40:47;23.35;;;19.60;;
66946;SDS011;53853;51.982;5.928;2024-03-22T07:43:14;22.15;;;18.83;;
66946;SDS011;53853;51.982;5.928;2024-03-22T07:45:41;25.77;;;20.40;;
66946;SDS011;53853;51.982;5.928;2024-03-22T07:48:09;23.55;;;17.63;;
66946;SDS011;53853;51.982;5.928;2024-03-22T07:50:36;22.35;;;18.45;;
66946;SDS011;53853;51.982;5.928;2024-03-22T07:53:06;20.98;;;18.35;;
66946;SDS011;53853;51.982;5.928;2024-03-22T07:55:33;22.73;;;18.73;;
66946;SDS011;53853;51.982;5.928;2024-03-22T07:58:00;23.77;;;18.30;;
66946;SDS011;53853;51.982;5.928;2024-03-22T08:00:28;23.70;;;20.77;;
66946;SDS011;53853;51.982;5.928;2024-03-22T08:02:55;30.13;;;22.70;;
66946;SDS011;53853;51.982;5.928;2024-03-22T08:05:22;26.10;;;21.15;;
66946;SDS011;53853;51.982;5.928;2024-03-22T08:07:50;26.10;;;22.27;;
66946;SDS011;53853;51.982;5.928;2024-03-22T08:10:19;27.27;;;20.55;;
66946;SDS011;53853;51.982;5.928;2024-03-22T08:12:47;27.63;;;22.30;;
66946;SDS011;53853;51.982;5.928;2024-03-22T08:15:14;23.38;;;20.40;;
66946;SDS011;53853;51.982;5.928;2024-03-22T08:17:41;25.77;;;21.08;;
66946;SDS011;53853;51.982;5.928;2024-03-22T08:20:09;27.33;;;22.80;;
66946;SDS011;53853;51.982;5.928;2024-03-22T08:22:36;24.77;;;20.80;;
66946;SDS011;53853;51.982;5.928;2024-03-22T08:25:03;27.85;;;21.52;;
66946;SDS011;53853;51.982;5.928;2024-03-22T08:27:34;25.10;;;20.63;;
66946;SDS011;53853;51.982;5.928;2024-03-22T08:30:01;29.70;;;23.83;;
66946;SDS011;53853;51.982;5.928;2024-03-22T08:32:29;25.38;;;20.13;;
66946;SDS011;53853;51.982;5.928;2024-03-22T08:34:56;24.63;;;21.70;;
66946;SDS011;53853;51.982;5.928;2024-03-22T08:37:24;35.55;;;24.42;;
66946;SDS011;53853;51.982;5.928;2024-03-22T08:39:51;31.10;;;23.90;;
66946;SDS011;53853;51.982;5.928;2024-03-22T08:42:19;32.08;;;25.55;;
66946;SDS011;53853;51.982;5.928;2024-03-22T08:44:48;32.88;;;25.20;;
66946;SDS011;53853;51.982;5.928;2024-03-22T08:47:16;36.75;;;25.60;;
66946;SDS011;53853;51.982;5.928;2024-03-22T08:49:43;32.33;;;26.52;;
66946;SDS011;53853;51.982;5.928;2024-03-22T08:52:10;33.63;;;27.02;;
66946;SDS011;53853;51.982;5.928;2024-03-22T08:54:37;35.40;;;28.27;;
66946;SDS011;53853;51.982;5.928;2024-03-22T08:57:05;31.23;;;26.40;;
66946;SDS011;53853;51.982;5.928;2024-03-22T08:59:32;31.33;;;25.20;;
66946;SDS011;53853;51.982;5.928;2024-03-22T09:02:02;30.70;;;25.02;;
66946;SDS011;53853;51.982;5.928;2024-03-22T09:04:29;37.35;;;30.25;;
66946;SDS011;53853;51.982;5.928;2024-03-22T09:06:56;37.40;;;31.27;;
66946;SDS011;53853;51.982;5.928;2024-03-22T09:09:24;35.67;;;29.00;;
66946;SDS011;53853;51.982;5.928;2024-03-22T09:11:53;39.85;;;32.30;;
66946;SDS011;53853;51.982;5.928;2024-03-22T09:14:20;37.63;;;30.13;;
66946;SDS011;53853;51.982;5.928;2024-03-22T09:16:47;44.58;;;32.22;;
66946;SDS011;53853;51.982;5.928;2024-03-22T09:19:17;41.45;;;31.75;;
66946;SDS011;53853;51.982;5.928;2024-03-22T09:21:44;41.28;;;32.58;;
66946;SDS011;53853;51.982;5.928;2024-03-22T09:24:11;37.47;;;31.40;;
66946;SDS011;53853;51.982;5.928;2024-03-22T09:26:38;34.40;;;28.98;;
66946;SDS011;53853;51.982;5.928;2024-03-22T09:29:06;31.63;;;26.67;;
66946;SDS011;53853;51.982;5.928;2024-03-22T09:31:33;38.45;;;28.98;;
66946;SDS011;53853;51.982;5.928;2024-03-22T09:34:00;37.28;;;28.73;;
66946;SDS011;53853;51.982;5.928;2024-03-22T09:36:30;33.13;;;27.73;;
66946;SDS011;53853;51.982;5.928;2024-03-22T09:38:57;32.88;;;27.55;;
66946;SDS011;53853;51.982;5.928;2024-03-22T09:41:24;29.60;;;25.35;;
66946;SDS011;53853;51.982;5.928;2024-03-22T09:43:52;33.35;;;25.58;;
66946;SDS011;53853;51.982;5.928;2024-03-22T09:46:20;39.63;;;30.27;;
66946;SDS011;53853;51.982;5.928;2024-03-22T09:48:47;35.88;;;28.08;;
66946;SDS011;53853;51.982;5.928;2024-03-22T09:51:15;41.47;;;31.63;;
66946;SDS011;53853;51.982;5.928;2024-03-22T09:53:46;43.45;;;30.92;;
66946;SDS011;53853;51.982;5.928;2024-03-22T09:56:14;38.30;;;29.05;;
66946;SDS011;53853;51.982;5.928;2024-03-22T09:58:45;34.70;;;26.73;;
66946;SDS011;53853;51.982;5.928;2024-03-22T10:01:14;34.28;;;28.88;;
66946;SDS011;53853;51.982;5.928;2024-03-22T10:03:43;39.85;;;31.45;;
66946;SDS011;53853;51.982;5.928;2024-03-22T10:06:10;37.90;;;30.10;;
66946;SDS011;53853;51.982;5.928;2024-03-22T10:08:38;36.58;;;28.92;;
66946;SDS011;53853;51.982;5.928;2024-03-22T10:11:08;35.90;;;27.70;;
66946;SDS011;53853;51.982;5.928;2024-03-22T10:13:35;42.47;;;33.15;;
66946;SDS011;53853;51.982;5.928;2024-03-22T10:16:02;44.58;;;31.80;;
66946;SDS011;53853;51.982;5.928;2024-03-22T10:18:31;35.97;;;28.45;;
66946;SDS011;53853;51.982;5.928;2024-03-22T10:20:59;32.97;;;27.65;;
66946;SDS011;53853;51.982;5.928;2024-03-22T10:23:27;36.50;;;28.73;;
66946;SDS011;53853;51.982;5.928;2024-03-22T10:25:55;37.67;;;29.52;;
66946;SDS011;53853;51.982;5.928;2024-03-22T10:28:26;33.88;;;27.55;;
66946;SDS011;53853;51.982;5.928;2024-03-22T10:30:54;28.67;;;24.80;;
66946;SDS011;53853;51.982;5.928;2024-03-22T10:33:21;31.88;;;25.52;;
66946;SDS011;53853;51.982;5.928;2024-03-22T10:35:50;33.08;;;26.92;;
66946;SDS011;53853;51.982;5.928;2024-03-22T10:38:19;33.42;;;27.20;;
66946;SDS011;53853;51.982;5.928;2024-03-22T10:40:47;36.90;;;27.02;;
66946;SDS011;53853;51.982;5.928;2024-03-22T10:43:15;29.88;;;23.15;;
66946;SDS011;53853;51.982;5.928;2024-03-22T10:45:45;30.30;;;23.65;;
66946;SDS011;53853;51.982;5.928;2024-03-22T10:48:17;29.92;;;25.95;;
66946;SDS011;53853;51.982;5.928;2024-03-22T10:50:47;21.90;;;19.60;;
66946;SDS011;53853;51.982;5.928;2024-03-22T10:53:18;27.65;;;23.27;;
66946;SDS011;53853;51.982;5.928;2024-03-22T10:55:49;23.58;;;19.55;;
66946;SDS011;53853;51.982;5.928;2024-03-22T10:58:21;21.70;;;19.35;;
66946;SDS011;53853;51.982;5.928;2024-03-22T11:00:53;25.08;;;22.33;;
66946;SDS011;53853;51.982;5.928;2024-03-22T11:03:22;32.78;;;23.95;;
66946;SDS011;53853;51.982;5.928;2024-03-22T11:05:53;22.00;;;18.85;;
66946;SDS011;53853;51.982;5.928;2024-03-22T11:08:24;25.90;;;20.67;;
66946;SDS011;53853;51.982;5.928;2024-03-22T11:10:52;24.08;;;19.25;;
66946;SDS011;53853;51.982;5.928;2024-03-22T11:13:21;23.92;;;20.23;;
66946;SDS011;53853;51.982;5.928;2024-03-22T11:15:49;28.00;;;21.65;;
66946;SDS011;53853;51.982;5.928;2024-03-22T11:18:19;23.10;;;20.60;;
66946;SDS011;53853;51.982;5.928;2024-03-22T11:20:46;25.13;;;19.75;;
66946;SDS011;53853;51.982;5.928;2024-03-22T11:23:14;22.85;;;16.83;;
66946;SDS011;53853;51.982;5.928;2024-03-22T11:25:41;22.33;;;19.10;;
66946;SDS011;53853;51.982;5.928;2024-03-22T11:28:08;20.77;;;17.85;;
66946;SDS011;53853;51.982;5.928;2024-03-22T11:30:35;23.48;;;16.92;;
66946;SDS011;53853;51.982;5.928;2024-03-22T11:33:03;20.60;;;17.75;;
66946;SDS011;53853;51.982;5.928;2024-03-22T11:35:34;17.70;;;14.75;;
66946;SDS011;53853;51.982;5.928;2024-03-22T11:38:01;17.40;;;15.55;;
66946;SDS011;53853;51.982;5.928;2024-03-22T11:40:28;14.57;;;13.07;;
66946;SDS011;53853;51.982;5.928;2024-03-22T11:42:57;12.90;;;11.60;;
66946;SDS011;53853;51.982;5.928;2024-03-22T11:45:24;14.68;;;11.10;;
66946;SDS011;53853;51.982;5.928;2024-03-22T11:47:53;16.92;;;14.38;;
66946;SDS011;53853;51.982;5.928;2024-03-22T11:50:20;17.00;;;13.20;;
66946;SDS011;53853;51.982;5.928;2024-03-22T11:52:50;12.60;;;11.30;;
66946;SDS011;53853;51.982;5.928;2024-03-22T11:55:18;13.02;;;10.75;;
66946;SDS011;53853;51.982;5.928;2024-03-22T11:57:47;8.85;;;7.95;;
66946;SDS011;53853;51.982;5.928;2024-03-22T12:00:16;11.35;;;9.48;;
66946;SDS011;53853;51.982;5.928;2024-03-22T12:02:44;13.38;;;9.68;;
66946;SDS011;53853;51.982;5.928;2024-03-22T12:05:11;9.63;;;8.60;;
66946;SDS011;53853;51.982;5.928;2024-03-22T12:07:39;8.88;;;7.97;;
66946;SDS011;53853;51.982;5.928;2024-03-22T12:10:09;10.73;;;9.48;;
66946;SDS011;53853;51.982;5.928;2024-03-22T12:12:36;18.63;;;13.20;;
66946;SDS011;53853;51.982;5.928;2024-03-22T12:15:03;14.82;;;11.43;;
66946;SDS011;53853;51.982;5.928;2024-03-22T12:17:31;9.80;;;8.10;;
66946;SDS011;53853;51.982;5.928;2024-03-22T12:19:59;10.50;;;9.02;;
66946;SDS011;53853;51.982;5.928;2024-03-22T12:22:26;9.35;;;8.45;;
66946;SDS011;53853;51.982;5.928;2024-03-22T12:24:54;7.90;;;6.72;;
66946;SDS011;53853;51.982;5.928;2024-03-22T12:27:23;7.43;;;6.30;;
66946;SDS011;53853;51.982;5.928;2024-03-22T12:29:51;9.75;;;7.80;;
66946;SDS011;53853;51.982;5.928;2024-03-22T12:32:18;8.45;;;6.30;;
66946;SDS011;53853;51.982;5.928;2024-03-22T12:34:45;8.95;;;7.50;;
66946;SDS011;53853;51.982;5.928;2024-03-22T12:37:13;7.75;;;6.65;;
66946;SDS011;53853;51.982;5.928;2024-03-22T12:39:40;5.25;;;4.75;;
66946;SDS011;53853;51.982;5.928;2024-03-22T12:42:07;6.93;;;6.13;;
66946;SDS011;53853;51.982;5.928;2024-03-22T12:44:37;7.43;;;6.15;;
66946;SDS011;53853;51.982;5.928;2024-03-22T12:47:04;7.50;;;6.00;;
66946;SDS011;53853;51.982;5.928;2024-03-22T12:49:32;6.85;;;6.18;;
66946;SDS011;53853;51.982;5.928;2024-03-22T12:51:59;6.13;;;5.53;;
66946;SDS011;53853;51.982;5.928;2024-03-22T12:54:26;5.85;;;5.30;;
66946;SDS011;53853;51.982;5.928;2024-03-22T12:56:53;5.40;;;4.90;;
66946;SDS011;53853;51.982;5.928;2024-03-22T12:59:20;7.07;;;6.38;;
66946;SDS011;53853;51.982;5.928;2024-03-22T13:01:50;5.53;;;4.60;;
66946;SDS011;53853;51.982;5.928;2024-03-22T13:04:17;4.95;;;4.28;;
66946;SDS011;53853;51.982;5.928;2024-03-22T13:06:45;5.65;;;5.00;;
66946;SDS011;53853;51.982;5.928;2024-03-22T13:09:14;5.60;;;4.90;;
66946;SDS011;53853;51.982;5.928;2024-03-22T13:11:41;5.70;;;5.10;;
66946;SDS011;53853;51.982;5.928;2024-03-22T13:14:08;6.63;;;5.95;;
66946;SDS011;53853;51.982;5.928;2024-03-22T13:16:35;6.82;;;5.15;;
66946;SDS011;53853;51.982;5.928;2024-03-22T13:19:05;5.60;;;5.05;;
66946;SDS011;53853;51.982;5.928;2024-03-22T13:21:32;4.25;;;3.80;;
66946;SDS011;53853;51.982;5.928;2024-03-22T13:24:00;5.47;;;4.28;;
66946;SDS011;53853;51.982;5.928;2024-03-22T13:26:27;5.75;;;5.13;;
66946;SDS011;53853;51.982;5.928;2024-03-22T13:28:54;5.93;;;4.45;;
66946;SDS011;53853;51.982;5.928;2024-03-22T13:31:21;6.65;;;5.35;;
66946;SDS011;53853;51.982;5.928;2024-03-22T13:33:49;3.90;;;3.47;;
66946;SDS011;53853;51.982;5.928;2024-03-22T13:36:18;4.15;;;3.30;;
66946;SDS011;53853;51.982;5.928;2024-03-22T13:38:46;5.63;;;4.05;;
66946;SDS011;53853;51.982;5.928;2024-03-22T13:41:13;4.75;;;3.33;;
66946;SDS011;53853;51.982;5.928;2024-03-22T13:43:40;4.93;;;4.15;;
66946;SDS011;53853;51.982;5.928;2024-03-22T13:46:07;4.10;;;3.70;;
66946;SDS011;53853;51.982;5.928;2024-03-22T13:48:34;5.13;;;3.90;;
66946;SDS011;53853;51.982;5.928;2024-03-22T13:51:02;3.90;;;3.30;;
66946;SDS011;53853;51.982;5.928;2024-03-22T13:53:32;3.25;;;2.70;;
66946;SDS011;53853;51.982;5.928;2024-03-22T13:55:59;3.83;;;2.75;;
66946;SDS011;53853;51.982;5.928;2024-03-22T13:58:27;4.00;;;2.80;;
66946;SDS011;53853;51.982;5.928;2024-03-22T14:00:54;4.97;;;2.60;;
66946;SDS011;53853;51.982;5.928;2024-03-22T14:03:21;5.05;;;2.55;;
66946;SDS011;53853;51.982;5.928;2024-03-22T14:05:48;4.40;;;2.65;;
66946;SDS011;53853;51.982;5.928;2024-03-22T14:08:15;5.78;;;3.75;;
66946;SDS011;53853;51.982;5.928;2024-03-22T14:10:45;5.68;;;3.00;;
66946;SDS011;53853;51.982;5.928;2024-03-22T14:13:12;6.03;;;4.20;;
66946;SDS011;53853;51.982;5.928;2024-03-22T14:15:40;4.90;;;3.38;;
66946;SDS011;53853;51.982;5.928;2024-03-22T14:18:07;4.95;;;3.65;;
66946;SDS011;53853;51.982;5.928;2024-03-22T14:20:34;4.13;;;3.20;;
66946;SDS011;53853;51.982;5.928;2024-03-22T14:23:01;4.65;;;3.40;;
66946;SDS011;53853;51.982;5.928;2024-03-22T14:25:29;5.05;;;3.50;;
66946;SDS011;53853;51.982;5.928;2024-03-22T14:28:00;6.30;;;3.88;;
66946;SDS011;53853;51.982;5.928;2024-03-22T14:30:28;4.20;;;3.25;;